sensor_id;sensor_type;location;lat;lon;timestamp;pressure;altitude;pressure_sealevel;temperature;humidity
64876;BME280;51369;49.862;9.908;2022-07-19T00:00:19;98724.81;;;20.25;48.23
64876;BME280;51369;49.862;9.908;2022-07-19T00:02:46;98726.06;;;20.21;47.72
64876;BME280;51369;49.862;9.908;2022-07-19T00:05:13;98726.53;;;20.14;48.29
64876;BME280;51369;49.862;9.908;2022-07-19T00:07:40;98724.25;;;20.08;48.39
64876;BME280;51369;49.862;9.908;2022-07-19T00:10:08;98722.97;;;20.01;48.97
64876;BME280;51369;49.862;9.908;2022-07-19T00:12:35;98726.28;;;19.94;48.89
64876;BME280;51369;49.862;9.908;2022-07-19T00:15:01;98726.84;;;19.86;49.10
64876;BME280;51369;49.862;9.908;2022-07-19T00:17:28;98728.53;;;19.76;49.70
64876;BME280;51369;49.862;9.908;2022-07-19T00:19:53;98729.09;;;19.68;49.25
64876;BME280;51369;49.862;9.908;2022-07-19T00:22:19;98724.31;;;19.59;49.79
64876;BME280;51369;49.862;9.908;2022-07-19T00:24:44;98722.13;;;19.52;49.40
64876;BME280;51369;49.862;9.908;2022-07-19T00:27:10;98716.31;;;19.43;49.32
64876;BME280;51369;49.862;9.908;2022-07-19T00:29:37;98720.47;;;19.36;48.94
64876;BME280;51369;49.862;9.908;2022-07-19T00:32:03;98717.53;;;19.27;48.82
64876;BME280;51369;49.862;9.908;2022-07-19T00:34:29;98721.69;;;19.19;48.88
64876;BME280;51369;49.862;9.908;2022-07-19T00:36:55;98717.53;;;19.14;49.71
64876;BME280;51369;49.862;9.908;2022-07-19T00:39:21;98725.22;;;19.09;49.51
64876;BME280;51369;49.862;9.908;2022-07-19T00:41:47;98719.34;;;19.02;50.02
64876;BME280;51369;49.862;9.908;2022-07-19T00:44:13;98718.78;;;18.97;50.45
64876;BME280;51369;49.862;9.908;2022-07-19T00:46:39;98721.09;;;18.91;50.83
64876;BME280;51369;49.862;9.908;2022-07-19T00:49:05;98720.66;;;18.84;50.48
64876;BME280;51369;49.862;9.908;2022-07-19T00:51:38;98727.53;;;18.77;49.75
64876;BME280;51369;49.862;9.908;2022-07-19T00:54:08;98728.84;;;18.71;50.42
64876;BME280;51369;49.862;9.908;2022-07-19T00:56:34;98723.81;;;18.65;50.46
64876;BME280;51369;49.862;9.908;2022-07-19T00:59:02;98721.28;;;18.62;51.28
64876;BME280;51369;49.862;9.908;2022-07-19T01:01:29;98721.56;;;18.58;51.07
64876;BME280;51369;49.862;9.908;2022-07-19T01:03:56;98715.44;;;18.54;50.90
64876;BME280;51369;49.862;9.908;2022-07-19T01:06:22;98713.91;;;18.50;50.74
64876;BME280;51369;49.862;9.908;2022-07-19T01:08:48;98719.69;;;18.45;50.57
64876;BME280;51369;49.862;9.908;2022-07-19T01:11:14;98719.22;;;18.39;50.07
64876;BME280;51369;49.862;9.908;2022-07-19T01:13:39;98719.53;;;18.34;50.91
64876;BME280;51369;49.862;9.908;2022-07-19T01:16:05;98722.50;;;18.31;50.38
64876;BME280;51369;49.862;9.908;2022-07-19T01:18:31;98720.94;;;18.27;50.47
64876;BME280;51369;49.862;9.908;2022-07-19T01:20:58;98726.53;;;18.26;51.92
64876;BME280;51369;49.862;9.908;2022-07-19T01:23:24;98725.75;;;18.24;51.79
64876;BME280;51369;49.862;9.908;2022-07-19T01:25:50;98733.19;;;18.21;51.58
64876;BME280;51369;49.862;9.908;2022-07-19T01:28:16;98724.31;;;18.18;51.74
64876;BME280;51369;49.862;9.908;2022-07-19T01:30:42;98721.88;;;18.13;51.84
64876;BME280;51369;49.862;9.908;2022-07-19T01:33:09;98724.06;;;18.08;52.09
64876;BME280;51369;49.862;9.908;2022-07-19T01:35:34;98721.53;;;18.05;52.38
64876;BME280;51369;49.862;9.908;2022-07-19T01:38:00;98719.88;;;18.03;52.42
64876;BME280;51369;49.862;9.908;2022-07-19T01:40:26;98717.34;;;18.00;52.32
64876;BME280;51369;49.862;9.908;2022-07-19T01:42:52;98714.84;;;17.97;51.54
64876;BME280;51369;49.862;9.908;2022-07-19T01:45:19;98725.00;;;17.95;52.12
64876;BME280;51369;49.862;9.908;2022-07-19T01:47:46;98727.03;;;17.91;51.55
64876;BME280;51369;49.862;9.908;2022-07-19T01:50:13;98723.66;;;17.87;52.55
64876;BME280;51369;49.862;9.908;2022-07-19T01:52:40;98732.16;;;17.83;52.61
64876;BME280;51369;49.862;9.908;2022-07-19T01:55:06;98724.25;;;17.78;52.33
64876;BME280;51369;49.862;9.908;2022-07-19T01:57:32;98722.91;;;17.71;52.34
64876;BME280;51369;49.862;9.908;2022-07-19T01:59:58;98717.81;;;17.65;51.78
64876;BME280;51369;49.862;9.908;2022-07-19T02:02:24;98719.00;;;17.61;51.14
64876;BME280;51369;49.862;9.908;2022-07-19T02:04:50;98712.75;;;17.59;50.35
64876;BME280;51369;49.862;9.908;2022-07-19T02:07:15;98709.94;;;17.61;50.98
64876;BME280;51369;49.862;9.908;2022-07-19T02:09:41;98713.63;;;17.60;51.68
64876;BME280;51369;49.862;9.908;2022-07-19T02:12:07;98721.94;;;17.58;52.31
64876;BME280;51369;49.862;9.908;2022-07-19T02:14:33;98716.47;;;17.58;53.05
64876;BME280;51369;49.862;9.908;2022-07-19T02:16:59;98713.94;;;17.55;53.49
64876;BME280;51369;49.862;9.908;2022-07-19T02:19:26;98717.84;;;17.51;53.74
64876;BME280;51369;49.862;9.908;2022-07-19T02:21:51;98709.84;;;17.48;53.39
64876;BME280;51369;49.862;9.908;2022-07-19T02:24:17;98703.81;;;17.43;53.21
64876;BME280;51369;49.862;9.908;2022-07-19T02:26:43;98710.56;;;17.37;53.66
64876;BME280;51369;49.862;9.908;2022-07-19T02:29:09;98711.97;;;17.30;52.55
64876;BME280;51369;49.862;9.908;2022-07-19T02:31:35;98710.59;;;17.23;53.23
64876;BME280;51369;49.862;9.908;2022-07-19T02:34:00;98710.91;;;17.18;53.17
64876;BME280;51369;49.862;9.908;2022-07-19T02:36:26;98714.69;;;17.16;53.02
64876;BME280;51369;49.862;9.908;2022-07-19T02:38:51;98716.66;;;17.14;53.50
64876;BME280;51369;49.862;9.908;2022-07-19T02:41:17;98718.69;;;17.10;53.52
64876;BME280;51369;49.862;9.908;2022-07-19T02:43:43;98720.75;;;17.07;53.19
64876;BME280;51369;49.862;9.908;2022-07-19T02:46:09;98711.19;;;17.00;52.58
64876;BME280;51369;49.862;9.908;2022-07-19T02:48:35;98722.59;;;16.92;53.78
64876;BME280;51369;49.862;9.908;2022-07-19T02:51:01;98714.78;;;16.86;53.41
64876;BME280;51369;49.862;9.908;2022-07-19T02:53:26;98721.41;;;16.82;54.65
64876;BME280;51369;49.862;9.908;2022-07-19T02:55:52;98724.34;;;16.79;54.49
64876;BME280;51369;49.862;9.908;2022-07-19T02:58:19;98723.66;;;16.75;54.42
64876;BME280;51369;49.862;9.908;2022-07-19T03:00:45;98723.84;;;16.72;54.66
64876;BME280;51369;49.862;9.908;2022-07-19T03:03:11;98722.19;;;16.70;55.10
64876;BME280;51369;49.862;9.908;2022-07-19T03:05:56;98725.09;;;16.67;54.98
64876;BME280;51369;49.862;9.908;2022-07-19T03:08:22;98725.34;;;16.62;55.59
64876;BME280;51369;49.862;9.908;2022-07-19T03:10:48;98721.84;;;16.60;56.08
64876;BME280;51369;49.862;9.908;2022-07-19T03:13:14;98725.63;;;16.57;56.09
64876;BME280;51369;49.862;9.908;2022-07-19T03:15:40;98729.41;;;16.55;56.02
64876;BME280;51369;49.862;9.908;2022-07-19T03:18:06;98725.13;;;16.51;55.96
64876;BME280;51369;49.862;9.908;2022-07-19T03:20:32;98724.34;;;16.49;55.97
64876;BME280;51369;49.862;9.908;2022-07-19T03:22:57;98724.53;;;16.46;55.96
64876;BME280;51369;49.862;9.908;2022-07-19T03:25:23;98727.53;;;16.41;56.45
64876;BME280;51369;49.862;9.908;2022-07-19T03:27:52;98730.53;;;16.37;55.95
64876;BME280;51369;49.862;9.908;2022-07-19T03:30:18;98734.50;;;16.31;55.81
64876;BME280;51369;49.862;9.908;2022-07-19T03:32:44;98727.59;;;16.25;55.51
64876;BME280;51369;49.862;9.908;2022-07-19T03:35:09;98731.56;;;16.20;53.91
64876;BME280;51369;49.862;9.908;2022-07-19T03:37:35;98734.38;;;16.18;54.54
64876;BME280;51369;49.862;9.908;2022-07-19T03:40:01;98734.63;;;16.14;54.70
64876;BME280;51369;49.862;9.908;2022-07-19T03:42:27;98732.97;;;16.11;56.71
64876;BME280;51369;49.862;9.908;2022-07-19T03:44:53;98737.81;;;16.06;56.18
64876;BME280;51369;49.862;9.908;2022-07-19T03:47:18;98723.59;;;16.01;56.57
64876;BME280;51369;49.862;9.908;2022-07-19T03:49:44;98731.16;;;15.96;55.97
64876;BME280;51369;49.862;9.908;2022-07-19T03:52:09;98735.91;;;15.92;56.95
64876;BME280;51369;49.862;9.908;2022-07-19T03:54:35;98731.53;;;15.90;56.88
64876;BME280;51369;49.862;9.908;2022-07-19T03:57:00;98736.09;;;15.89;56.52
64876;BME280;51369;49.862;9.908;2022-07-19T03:59:26;98738.72;;;15.91;56.66
64876;BME280;51369;49.862;9.908;2022-07-19T04:01:52;98736.78;;;15.93;56.91
64876;BME280;51369;49.862;9.908;2022-07-19T04:04:18;98741.09;;;15.97;57.69
64876;BME280;51369;49.862;9.908;2022-07-19T04:06:43;98741.09;;;15.97;57.07
64876;BME280;51369;49.862;9.908;2022-07-19T04:09:10;98728.53;;;15.94;55.71
64876;BME280;51369;49.862;9.908;2022-07-19T04:11:36;98739.50;;;15.93;53.77
64876;BME280;51369;49.862;9.908;2022-07-19T04:14:02;98745.03;;;15.91;54.95
64876;BME280;51369;49.862;9.908;2022-07-19T04:16:28;98754.09;;;15.92;56.07
64876;BME280;51369;49.862;9.908;2022-07-19T04:18:54;98761.13;;;15.96;56.91
64876;BME280;51369;49.862;9.908;2022-07-19T04:21:20;98756.63;;;15.95;57.91
64876;BME280;51369;49.862;9.908;2022-07-19T04:23:45;98757.69;;;15.92;57.57
64876;BME280;51369;49.862;9.908;2022-07-19T04:26:11;98747.84;;;15.90;57.60
64876;BME280;51369;49.862;9.908;2022-07-19T04:28:36;98754.34;;;15.87;56.76
64876;BME280;51369;49.862;9.908;2022-07-19T04:31:03;98756.19;;;15.87;57.64
64876;BME280;51369;49.862;9.908;2022-07-19T04:33:29;98751.72;;;15.86;57.59
64876;BME280;51369;49.862;9.908;2022-07-19T04:35:55;98749.78;;;15.88;57.58
64876;BME280;51369;49.862;9.908;2022-07-19T04:38:21;98749.69;;;15.89;56.73
64876;BME280;51369;49.862;9.908;2022-07-19T04:40:47;98752.25;;;15.92;56.18
64876;BME280;51369;49.862;9.908;2022-07-19T04:43:13;98752.06;;;15.95;56.77
64876;BME280;51369;49.862;9.908;2022-07-19T04:45:38;98741.09;;;15.97;57.76
64876;BME280;51369;49.862;9.908;2022-07-19T04:48:09;98750.03;;;15.99;57.43
64876;BME280;51369;49.862;9.908;2022-07-19T04:50:36;98748.19;;;16.00;57.51
64876;BME280;51369;49.862;9.908;2022-07-19T04:53:02;98753.47;;;16.03;57.60
64876;BME280;51369;49.862;9.908;2022-07-19T04:55:28;98751.44;;;16.06;57.38
64876;BME280;51369;49.862;9.908;2022-07-19T04:57:53;98757.50;;;16.11;57.35
64876;BME280;51369;49.862;9.908;2022-07-19T05:00:19;98758.00;;;16.18;57.86
64876;BME280;51369;49.862;9.908;2022-07-19T05:02:45;98764.84;;;16.25;58.28
64876;BME280;51369;49.862;9.908;2022-07-19T05:05:11;98765.53;;;16.28;58.64
64876;BME280;51369;49.862;9.908;2022-07-19T05:07:37;98767.13;;;16.33;59.12
64876;BME280;51369;49.862;9.908;2022-07-19T05:10:04;98756.81;;;16.38;59.57
64876;BME280;51369;49.862;9.908;2022-07-19T05:12:31;98755.66;;;16.42;59.20
64876;BME280;51369;49.862;9.908;2022-07-19T05:14:56;98759.78;;;16.49;59.02
64876;BME280;51369;49.862;9.908;2022-07-19T05:17:24;98753.06;;;16.54;59.04
64876;BME280;51369;49.862;9.908;2022-07-19T05:19:50;98754.44;;;16.62;59.93
64876;BME280;51369;49.862;9.908;2022-07-19T05:22:15;98752.25;;;16.68;61.07
64876;BME280;51369;49.862;9.908;2022-07-19T05:24:41;98747.22;;;16.76;61.52
64876;BME280;51369;49.862;9.908;2022-07-19T05:27:07;98750.25;;;16.86;61.06
64876;BME280;51369;49.862;9.908;2022-07-19T05:29:33;98745.69;;;17.01;60.73
64876;BME280;51369;49.862;9.908;2022-07-19T05:31:59;98749.19;;;17.17;60.90
64876;BME280;51369;49.862;9.908;2022-07-19T05:34:25;98750.72;;;17.35;59.79
64876;BME280;51369;49.862;9.908;2022-07-19T05:36:51;98749.44;;;17.55;59.52
64876;BME280;51369;49.862;9.908;2022-07-19T05:39:17;98750.13;;;17.73;59.10
64876;BME280;51369;49.862;9.908;2022-07-19T05:41:42;98746.16;;;17.91;58.96
64876;BME280;51369;49.862;9.908;2022-07-19T05:44:10;98749.31;;;18.12;59.70
64876;BME280;51369;49.862;9.908;2022-07-19T05:46:36;98741.53;;;18.33;59.13
64876;BME280;51369;49.862;9.908;2022-07-19T05:49:07;98741.03;;;18.53;58.24
64876;BME280;51369;49.862;9.908;2022-07-19T05:51:34;98752.38;;;18.74;56.98
64876;BME280;51369;49.862;9.908;2022-07-19T05:54:01;98753.81;;;18.92;56.45
64876;BME280;51369;49.862;9.908;2022-07-19T05:56:28;98751.59;;;19.10;56.44
64876;BME280;51369;49.862;9.908;2022-07-19T05:58:53;98757.72;;;19.26;55.57
64876;BME280;51369;49.862;9.908;2022-07-19T06:01:19;98743.81;;;19.42;54.43
64876;BME280;51369;49.862;9.908;2022-07-19T06:03:50;98741.84;;;19.57;53.40
64876;BME280;51369;49.862;9.908;2022-07-19T06:06:17;98747.16;;;19.71;52.73
64876;BME280;51369;49.862;9.908;2022-07-19T06:08:43;98746.25;;;19.83;52.06
64876;BME280;51369;49.862;9.908;2022-07-19T06:11:09;98751.69;;;19.96;52.35
64876;BME280;51369;49.862;9.908;2022-07-19T06:13:36;98748.03;;;20.08;51.51
64876;BME280;51369;49.862;9.908;2022-07-19T06:16:03;98749.97;;;20.19;52.33
64876;BME280;51369;49.862;9.908;2022-07-19T06:18:29;98752.78;;;20.30;51.79
64876;BME280;51369;49.862;9.908;2022-07-19T06:21:07;98753.63;;;20.43;51.36
64876;BME280;51369;49.862;9.908;2022-07-19T06:23:33;98744.56;;;20.54;51.48
64876;BME280;51369;49.862;9.908;2022-07-19T06:25:58;98747.34;;;20.65;51.64
64876;BME280;51369;49.862;9.908;2022-07-19T06:28:25;98748.25;;;20.76;52.04
64876;BME280;51369;49.862;9.908;2022-07-19T06:30:51;98741.88;;;20.87;51.93
64876;BME280;51369;49.862;9.908;2022-07-19T06:33:17;98741.91;;;20.98;51.69
64876;BME280;51369;49.862;9.908;2022-07-19T06:35:42;98746.56;;;21.09;51.50
64876;BME280;51369;49.862;9.908;2022-07-19T06:38:08;98751.84;;;21.23;51.67
64876;BME280;51369;49.862;9.908;2022-07-19T06:40:33;98744.63;;;21.33;51.48
64876;BME280;51369;49.862;9.908;2022-07-19T06:42:59;98748.25;;;21.45;51.56
64876;BME280;51369;49.862;9.908;2022-07-19T06:45:25;98752.75;;;21.57;51.63
64876;BME280;51369;49.862;9.908;2022-07-19T06:47:51;98750.88;;;21.69;51.45
64876;BME280;51369;49.862;9.908;2022-07-19T06:50:21;98760.09;;;21.79;51.69
64876;BME280;51369;49.862;9.908;2022-07-19T06:52:47;98755.47;;;21.91;51.29
64876;BME280;51369;49.862;9.908;2022-07-19T06:55:14;98756.34;;;22.02;51.35
64876;BME280;51369;49.862;9.908;2022-07-19T06:57:40;98745.31;;;22.14;51.23
64876;BME280;51369;49.862;9.908;2022-07-19T07:00:07;98745.78;;;22.30;51.18
64876;BME280;51369;49.862;9.908;2022-07-19T07:02:39;98741.72;;;22.45;50.02
64876;BME280;51369;49.862;9.908;2022-07-19T07:05:06;98733.88;;;22.61;50.30
64876;BME280;51369;49.862;9.908;2022-07-19T07:07:32;98733.19;;;22.80;49.88
64876;BME280;51369;49.862;9.908;2022-07-19T07:09:58;98742.31;;;23.01;48.44
64876;BME280;51369;49.862;9.908;2022-07-19T07:12:25;98743.78;;;23.26;48.81
64876;BME280;51369;49.862;9.908;2022-07-19T07:14:50;98741.72;;;23.49;48.04
64876;BME280;51369;49.862;9.908;2022-07-19T07:17:16;98744.47;;;23.70;46.22
64876;BME280;51369;49.862;9.908;2022-07-19T07:19:42;98746.88;;;23.94;45.80
64876;BME280;51369;49.862;9.908;2022-07-19T07:22:07;98735.88;;;24.13;45.27
64876;BME280;51369;49.862;9.908;2022-07-19T07:24:33;98739.69;;;24.31;44.79
64876;BME280;51369;49.862;9.908;2022-07-19T07:26:59;98737.84;;;24.51;44.26
64876;BME280;51369;49.862;9.908;2022-07-19T07:29:25;98736.97;;;24.80;44.06
64876;BME280;51369;49.862;9.908;2022-07-19T07:31:50;98734.34;;;25.07;43.56
64876;BME280;51369;49.862;9.908;2022-07-19T07:34:16;98740.41;;;25.30;43.30
64876;BME280;51369;49.862;9.908;2022-07-19T07:36:42;98734.81;;;25.49;42.94
64876;BME280;51369;49.862;9.908;2022-07-19T07:39:11;98736.84;;;25.67;42.62
64876;BME280;51369;49.862;9.908;2022-07-19T07:41:37;98738.22;;;25.80;41.62
64876;BME280;51369;49.862;9.908;2022-07-19T07:44:03;98741.75;;;26.00;41.46
64876;BME280;51369;49.862;9.908;2022-07-19T07:46:29;98729.38;;;26.22;41.46
64876;BME280;51369;49.862;9.908;2022-07-19T07:48:55;98731.00;;;26.42;41.18
64876;BME280;51369;49.862;9.908;2022-07-19T07:51:20;98735.84;;;26.58;40.73
64876;BME280;51369;49.862;9.908;2022-07-19T07:53:46;98733.94;;;26.76;41.31
64876;BME280;51369;49.862;9.908;2022-07-19T07:56:12;98741.38;;;26.94;40.62
64876;BME280;51369;49.862;9.908;2022-07-19T07:58:38;98733.41;;;27.08;40.59
64876;BME280;51369;49.862;9.908;2022-07-19T08:01:03;98737.00;;;27.27;39.89
64876;BME280;51369;49.862;9.908;2022-07-19T08:03:29;98731.41;;;27.44;39.78
64876;BME280;51369;49.862;9.908;2022-07-19T08:05:54;98727.56;;;27.63;40.12
64876;BME280;51369;49.862;9.908;2022-07-19T08:08:26;98725.91;;;27.86;38.15
64876;BME280;51369;49.862;9.908;2022-07-19T08:10:53;98726.19;;;28.09;38.78
64876;BME280;51369;49.862;9.908;2022-07-19T08:13:20;98717.44;;;28.30;38.29
64876;BME280;51369;49.862;9.908;2022-07-19T08:15:46;98711.22;;;28.44;38.90
64876;BME280;51369;49.862;9.908;2022-07-19T08:18:12;98709.84;;;28.57;38.13
64876;BME280;51369;49.862;9.908;2022-07-19T08:20:38;98711.09;;;28.70;37.25
64876;BME280;51369;49.862;9.908;2022-07-19T08:23:03;98707.84;;;28.83;36.32
64876;BME280;51369;49.862;9.908;2022-07-19T08:25:29;98714.78;;;28.95;35.86
64876;BME280;51369;49.862;9.908;2022-07-19T08:27:55;98711.66;;;29.06;36.58
64876;BME280;51369;49.862;9.908;2022-07-19T08:30:20;98709.56;;;29.17;36.77
64876;BME280;51369;49.862;9.908;2022-07-19T08:32:46;98709.56;;;29.25;36.24
64876;BME280;51369;49.862;9.908;2022-07-19T08:35:12;98711.28;;;29.34;36.25
64876;BME280;51369;49.862;9.908;2022-07-19T08:37:37;98710.09;;;29.44;36.67
64876;BME280;51369;49.862;9.908;2022-07-19T08:40:05;98696.81;;;29.55;35.67
64876;BME280;51369;49.862;9.908;2022-07-19T08:42:31;98696.94;;;29.69;35.91
64876;BME280;51369;49.862;9.908;2022-07-19T08:45:00;98697.59;;;29.79;36.28
64876;BME280;51369;49.862;9.908;2022-07-19T08:47:26;98697.22;;;29.91;35.36
64876;BME280;51369;49.862;9.908;2022-07-19T08:49:52;98689.19;;;30.04;35.31
64876;BME280;51369;49.862;9.908;2022-07-19T08:52:19;98702.34;;;30.18;34.52
64876;BME280;51369;49.862;9.908;2022-07-19T08:54:45;98701.56;;;30.32;34.49
64876;BME280;51369;49.862;9.908;2022-07-19T08:57:11;98708.44;;;30.44;34.54
64876;BME280;51369;49.862;9.908;2022-07-19T08:59:55;98704.91;;;30.59;34.35
64876;BME280;51369;49.862;9.908;2022-07-19T09:02:21;98705.34;;;30.70;34.91
64876;BME280;51369;49.862;9.908;2022-07-19T09:05:00;98705.97;;;30.81;34.06
64876;BME280;51369;49.862;9.908;2022-07-19T09:07:26;98705.53;;;30.92;34.81
64876;BME280;51369;49.862;9.908;2022-07-19T09:09:52;98701.81;;;30.99;33.94
64876;BME280;51369;49.862;9.908;2022-07-19T09:12:18;98707.31;;;31.07;34.83
64876;BME280;51369;49.862;9.908;2022-07-19T09:14:53;98708.34;;;31.15;34.01
64876;BME280;51369;49.862;9.908;2022-07-19T09:17:18;98704.38;;;31.24;33.54
64876;BME280;51369;49.862;9.908;2022-07-19T09:19:46;98699.88;;;31.37;32.17
64876;BME280;51369;49.862;9.908;2022-07-19T09:22:15;98702.22;;;31.49;32.01
64876;BME280;51369;49.862;9.908;2022-07-19T09:24:46;98699.81;;;31.60;32.13
64876;BME280;51369;49.862;9.908;2022-07-19T09:27:15;98699.00;;;31.75;32.33
64876;BME280;51369;49.862;9.908;2022-07-19T09:29:42;98686.97;;;31.89;32.07
64876;BME280;51369;49.862;9.908;2022-07-19T09:32:11;98689.44;;;31.98;31.27
64876;BME280;51369;49.862;9.908;2022-07-19T09:34:43;98680.97;;;32.07;31.66
64876;BME280;51369;49.862;9.908;2022-07-19T09:37:25;98693.84;;;32.22;31.02
64876;BME280;51369;49.862;9.908;2022-07-19T09:40:05;98674.28;;;32.37;31.06
64876;BME280;51369;49.862;9.908;2022-07-19T09:42:39;98682.63;;;32.52;31.56
64876;BME280;51369;49.862;9.908;2022-07-19T09:45:07;98681.03;;;32.64;29.60
64876;BME280;51369;49.862;9.908;2022-07-19T09:47:38;98678.69;;;32.82;30.16
64876;BME280;51369;49.862;9.908;2022-07-19T09:50:13;98687.44;;;33.00;30.62
64876;BME280;51369;49.862;9.908;2022-07-19T09:52:43;98682.03;;;33.20;30.09
64876;BME280;51369;49.862;9.908;2022-07-19T09:55:10;98685.00;;;33.40;29.44
64876;BME280;51369;49.862;9.908;2022-07-19T09:57:42;98679.56;;;33.60;28.77
64876;BME280;51369;49.862;9.908;2022-07-19T10:00:11;98678.44;;;33.82;28.38
64876;BME280;51369;49.862;9.908;2022-07-19T10:02:39;98676.59;;;34.03;29.03
64876;BME280;51369;49.862;9.908;2022-07-19T10:05:06;98671.75;;;34.24;28.30
64876;BME280;51369;49.862;9.908;2022-07-19T10:07:33;98679.81;;;34.41;27.63
64876;BME280;51369;49.862;9.908;2022-07-19T10:10:10;98678.59;;;34.56;28.14
64876;BME280;51369;49.862;9.908;2022-07-19T10:12:38;98669.53;;;34.74;26.92
64876;BME280;51369;49.862;9.908;2022-07-19T10:15:06;98672.59;;;34.86;27.74
64876;BME280;51369;49.862;9.908;2022-07-19T10:17:57;98670.47;;;35.01;27.23
64876;BME280;51369;49.862;9.908;2022-07-19T10:20:26;98672.19;;;35.22;27.52
64876;BME280;51369;49.862;9.908;2022-07-19T10:22:52;98668.34;;;35.36;27.05
64876;BME280;51369;49.862;9.908;2022-07-19T10:25:19;98664.44;;;35.50;27.19
64876;BME280;51369;49.862;9.908;2022-07-19T10:27:50;98675.66;;;35.64;26.70
64876;BME280;51369;49.862;9.908;2022-07-19T10:30:19;98660.50;;;35.78;26.74
64876;BME280;51369;49.862;9.908;2022-07-19T10:32:47;98653.78;;;35.92;25.88
64876;BME280;51369;49.862;9.908;2022-07-19T10:38:07;98648.94;;;36.19;25.40
64876;BME280;51369;49.862;9.908;2022-07-19T10:40:43;98647.41;;;36.30;26.05
64876;BME280;51369;49.862;9.908;2022-07-19T10:43:12;98639.78;;;36.37;24.88
64876;BME280;51369;49.862;9.908;2022-07-19T10:45:43;98638.06;;;36.36;25.06
64876;BME280;51369;49.862;9.908;2022-07-19T10:48:38;98634.16;;;36.37;24.88
64876;BME280;51369;49.862;9.908;2022-07-19T10:51:05;98632.84;;;36.39;25.13
64876;BME280;51369;49.862;9.908;2022-07-19T10:56:42;98632.25;;;36.31;24.29
64876;BME280;51369;49.862;9.908;2022-07-19T10:59:12;98624.00;;;36.36;24.93
64876;BME280;51369;49.862;9.908;2022-07-19T11:01:53;98623.94;;;36.42;25.28
64876;BME280;51369;49.862;9.908;2022-07-19T11:04:27;98615.25;;;36.50;25.00
64876;BME280;51369;49.862;9.908;2022-07-19T11:07:15;98617.75;;;36.65;25.65
64876;BME280;51369;49.862;9.908;2022-07-19T11:10:01;98613.31;;;36.82;25.03
64876;BME280;51369;49.862;9.908;2022-07-19T11:12:31;98611.91;;;36.98;23.81
64876;BME280;51369;49.862;9.908;2022-07-19T11:14:59;98613.97;;;37.09;24.74
64876;BME280;51369;49.862;9.908;2022-07-19T11:17:25;98606.09;;;37.18;23.67
64876;BME280;51369;49.862;9.908;2022-07-19T11:22:43;98609.13;;;37.23;24.13
64876;BME280;51369;49.862;9.908;2022-07-19T11:25:11;98599.13;;;37.27;23.48
64876;BME280;51369;49.862;9.908;2022-07-19T11:27:40;98598.28;;;37.20;23.21
64876;BME280;51369;49.862;9.908;2022-07-19T11:30:07;98599.44;;;37.12;23.82
64876;BME280;51369;49.862;9.908;2022-07-19T11:32:33;98585.97;;;37.14;25.30
64876;BME280;51369;49.862;9.908;2022-07-19T11:35:05;98576.84;;;37.19;24.35
64876;BME280;51369;49.862;9.908;2022-07-19T11:37:33;98571.41;;;37.24;23.82
64876;BME280;51369;49.862;9.908;2022-07-19T11:40:01;98578.53;;;37.27;23.62
64876;BME280;51369;49.862;9.908;2022-07-19T11:42:48;98576.34;;;37.29;22.73
64876;BME280;51369;49.862;9.908;2022-07-19T11:45:18;98569.56;;;37.36;23.41
64876;BME280;51369;49.862;9.908;2022-07-19T11:47:55;98561.28;;;37.41;24.18
64876;BME280;51369;49.862;9.908;2022-07-19T11:50:23;98567.69;;;37.49;24.49
64876;BME280;51369;49.862;9.908;2022-07-19T11:52:56;98556.13;;;37.57;23.41
64876;BME280;51369;49.862;9.908;2022-07-19T11:55:27;98561.28;;;37.60;23.01
64876;BME280;51369;49.862;9.908;2022-07-19T11:57:54;98554.16;;;37.57;22.95
64876;BME280;51369;49.862;9.908;2022-07-19T12:00:21;98542.03;;;37.57;22.46
64876;BME280;51369;49.862;9.908;2022-07-19T12:02:59;98546.09;;;37.61;23.76
64876;BME280;51369;49.862;9.908;2022-07-19T12:05:31;98545.81;;;37.69;22.97
64876;BME280;51369;49.862;9.908;2022-07-19T12:07:59;98543.16;;;37.74;22.86
64876;BME280;51369;49.862;9.908;2022-07-19T12:10:36;98538.28;;;37.81;22.50
64876;BME280;51369;49.862;9.908;2022-07-19T12:13:03;98541.19;;;37.93;23.24
64876;BME280;51369;49.862;9.908;2022-07-19T12:18:19;98534.50;;;38.05;24.10
64876;BME280;51369;49.862;9.908;2022-07-19T12:21:25;98532.97;;;38.21;22.79
64876;BME280;51369;49.862;9.908;2022-07-19T12:24:18;98533.16;;;38.38;23.81
64876;BME280;51369;49.862;9.908;2022-07-19T12:27:06;98535.28;;;38.54;22.78
64876;BME280;51369;49.862;9.908;2022-07-19T12:29:41;98530.09;;;38.69;22.30
64876;BME280;51369;49.862;9.908;2022-07-19T12:32:14;98526.16;;;38.70;22.27
64876;BME280;51369;49.862;9.908;2022-07-19T12:37:39;98514.38;;;38.62;21.75
64876;BME280;51369;49.862;9.908;2022-07-19T12:40:08;98516.47;;;38.66;22.47
64876;BME280;51369;49.862;9.908;2022-07-19T12:42:50;98516.59;;;38.71;21.89
64876;BME280;51369;49.862;9.908;2022-07-19T12:45:27;98516.00;;;38.81;22.20
64876;BME280;51369;49.862;9.908;2022-07-19T12:47:53;98519.44;;;38.83;21.26
64876;BME280;51369;49.862;9.908;2022-07-19T12:52:46;98514.03;;;38.93;22.27
64876;BME280;51369;49.862;9.908;2022-07-19T12:55:11;98513.06;;;38.99;21.14
64876;BME280;51369;49.862;9.908;2022-07-19T12:57:37;98504.50;;;39.06;22.64
64876;BME280;51369;49.862;9.908;2022-07-19T13:00:04;98505.34;;;39.18;22.14
64876;BME280;51369;49.862;9.908;2022-07-19T13:02:30;98498.72;;;39.24;21.83
64876;BME280;51369;49.862;9.908;2022-07-19T13:04:55;98502.28;;;39.31;21.63
64876;BME280;51369;49.862;9.908;2022-07-19T13:07:21;98491.22;;;39.42;22.35
64876;BME280;51369;49.862;9.908;2022-07-19T13:09:47;98490.59;;;39.51;21.26
64876;BME280;51369;49.862;9.908;2022-07-19T13:12:12;98482.84;;;39.58;21.31
64876;BME280;51369;49.862;9.908;2022-07-19T13:14:38;98481.25;;;39.62;21.37
64876;BME280;51369;49.862;9.908;2022-07-19T13:17:05;98475.34;;;39.64;21.21
64876;BME280;51369;49.862;9.908;2022-07-19T13:19:32;98481.00;;;39.64;21.21